sensor_id;sensor_type;location;lat;lon;timestamp;P1;durP1;ratioP1;P2;durP2;ratioP2
33413;SDS011;60055;41.884;12.534;2023-12-14T00:01:15;23.35;;;3.83;;
33413;SDS011;60055;41.884;12.534;2023-12-14T00:03:41;17.35;;;3.67;;
33413;SDS011;60055;41.884;12.534;2023-12-14T00:06:10;20.88;;;3.92;;
33413;SDS011;60055;41.884;12.534;2023-12-14T00:08:36;20.65;;;3.60;;
33413;SDS011;60055;41.884;12.534;2023-12-14T00:11:08;25.13;;;3.85;;
33413;SDS011;60055;41.884;12.534;2023-12-14T00:13:35;21.70;;;3.67;;
33413;SDS011;60055;41.884;12.534;2023-12-14T00:16:01;17.40;;;2.78;;
33413;SDS011;60055;41.884;12.534;2023-12-14T00:18:27;19.50;;;3.25;;
33413;SDS011;60055;41.884;12.534;2023-12-14T00:20:52;27.77;;;3.75;;
33413;SDS011;60055;41.884;12.534;2023-12-14T00:23:19;20.27;;;3.15;;
33413;SDS011;60055;41.884;12.534;2023-12-14T00:25:45;20.33;;;3.20;;
33413;SDS011;60055;41.884;12.534;2023-12-14T00:28:10;16.98;;;3.03;;
33413;SDS011;60055;41.884;12.534;2023-12-14T00:30:36;19.67;;;3.30;;
33413;SDS011;60055;41.884;12.534;2023-12-14T00:33:01;18.02;;;3.13;;
33413;SDS011;60055;41.884;12.534;2023-12-14T00:35:27;20.90;;;3.70;;
33413;SDS011;60055;41.884;12.534;2023-12-14T00:37:52;22.15;;;3.88;;
33413;SDS011;60055;41.884;12.534;2023-12-14T00:40:18;22.58;;;3.70;;
33413;SDS011;60055;41.884;12.534;2023-12-14T00:42:43;20.77;;;4.07;;
33413;SDS011;60055;41.884;12.534;2023-12-14T00:45:09;20.20;;;4.63;;
33413;SDS011;60055;41.884;12.534;2023-12-14T00:47:34;23.70;;;4.60;;
33413;SDS011;60055;41.884;12.534;2023-12-14T00:50:00;19.63;;;3.55;;
33413;SDS011;60055;41.884;12.534;2023-12-14T00:52:25;21.58;;;3.47;;
33413;SDS011;60055;41.884;12.534;2023-12-14T00:54:50;20.65;;;3.92;;
33413;SDS011;60055;41.884;12.534;2023-12-14T00:57:16;19.88;;;3.55;;
33413;SDS011;60055;41.884;12.534;2023-12-14T00:59:41;20.77;;;4.53;;
33413;SDS011;60055;41.884;12.534;2023-12-14T01:02:07;20.40;;;3.65;;
33413;SDS011;60055;41.884;12.534;2023-12-14T01:04:32;22.58;;;3.10;;
33413;SDS011;60055;41.884;12.534;2023-12-14T01:06:58;21.17;;;3.03;;
33413;SDS011;60055;41.884;12.534;2023-12-14T01:09:23;18.20;;;3.75;;
33413;SDS011;60055;41.884;12.534;2023-12-14T01:11:49;14.43;;;3.65;;
33413;SDS011;60055;41.884;12.534;2023-12-14T01:14:14;21.80;;;4.00;;
33413;SDS011;60055;41.884;12.534;2023-12-14T01:16:40;26.60;;;4.00;;
33413;SDS011;60055;41.884;12.534;2023-12-14T01:19:05;23.13;;;3.53;;
33413;SDS011;60055;41.884;12.534;2023-12-14T01:21:34;21.00;;;3.72;;
33413;SDS011;60055;41.884;12.534;2023-12-14T01:23:59;20.30;;;3.80;;
33413;SDS011;60055;41.884;12.534;2023-12-14T01:26:27;19.08;;;3.88;;
33413;SDS011;60055;41.884;12.534;2023-12-14T01:28:53;25.60;;;3.85;;
33413;SDS011;60055;41.884;12.534;2023-12-14T01:31:18;21.15;;;3.53;;
33413;SDS011;60055;41.884;12.534;2023-12-14T01:33:46;21.52;;;3.42;;
33413;SDS011;60055;41.884;12.534;2023-12-14T01:36:11;18.27;;;4.00;;
33413;SDS011;60055;41.884;12.534;2023-12-14T01:38:37;22.95;;;3.90;;
33413;SDS011;60055;41.884;12.534;2023-12-14T01:41:02;24.48;;;3.55;;
33413;SDS011;60055;41.884;12.534;2023-12-14T01:43:28;22.50;;;3.60;;
33413;SDS011;60055;41.884;12.534;2023-12-14T01:45:54;23.00;;;3.40;;
33413;SDS011;60055;41.884;12.534;2023-12-14T01:48:19;21.73;;;3.50;;
33413;SDS011;60055;41.884;12.534;2023-12-14T01:50:44;23.52;;;3.75;;
33413;SDS011;60055;41.884;12.534;2023-12-14T01:53:10;18.55;;;3.35;;
33413;SDS011;60055;41.884;12.534;2023-12-14T01:55:35;18.50;;;3.33;;
33413;SDS011;60055;41.884;12.534;2023-12-14T01:58:01;25.05;;;3.53;;
33413;SDS011;60055;41.884;12.534;2023-12-14T02:03:13;21.45;;;4.15;;
33413;SDS011;60055;41.884;12.534;2023-12-14T02:05:39;23.75;;;3.78;;
33413;SDS011;60055;41.884;12.534;2023-12-14T02:08:04;20.60;;;3.47;;
33413;SDS011;60055;41.884;12.534;2023-12-14T02:10:29;26.55;;;3.78;;
33413;SDS011;60055;41.884;12.534;2023-12-14T02:12:55;19.88;;;3.33;;
33413;SDS011;60055;41.884;12.534;2023-12-14T02:15:20;17.73;;;3.63;;
33413;SDS011;60055;41.884;12.534;2023-12-14T02:17:46;23.38;;;3.80;;
33413;SDS011;60055;41.884;12.534;2023-12-14T02:20:11;23.67;;;3.35;;
33413;SDS011;60055;41.884;12.534;2023-12-14T02:22:49;16.77;;;3.67;;
33413;SDS011;60055;41.884;12.534;2023-12-14T02:25:15;21.85;;;3.70;;
33413;SDS011;60055;41.884;12.534;2023-12-14T02:27:41;17.33;;;3.33;;
33413;SDS011;60055;41.884;12.534;2023-12-14T02:30:07;18.02;;;3.28;;
33413;SDS011;60055;41.884;12.534;2023-12-14T02:32:33;23.70;;;4.28;;
33413;SDS011;60055;41.884;12.534;2023-12-14T02:34:59;19.92;;;3.47;;
33413;SDS011;60055;41.884;12.534;2023-12-14T02:37:24;22.90;;;3.58;;
33413;SDS011;60055;41.884;12.534;2023-12-14T02:39:49;19.20;;;3.50;;
33413;SDS011;60055;41.884;12.534;2023-12-14T02:42:15;19.65;;;3.35;;
33413;SDS011;60055;41.884;12.534;2023-12-14T02:44:41;24.35;;;3.67;;
33413;SDS011;60055;41.884;12.534;2023-12-14T02:47:06;21.75;;;4.13;;
33413;SDS011;60055;41.884;12.534;2023-12-14T02:49:34;23.20;;;3.97;;
33413;SDS011;60055;41.884;12.534;2023-12-14T02:52:00;24.63;;;3.60;;
33413;SDS011;60055;41.884;12.534;2023-12-14T02:54:25;25.17;;;3.70;;
33413;SDS011;60055;41.884;12.534;2023-12-14T02:56:51;21.88;;;3.10;;
33413;SDS011;60055;41.884;12.534;2023-12-14T02:59:16;19.30;;;3.38;;
33413;SDS011;60055;41.884;12.534;2023-12-14T03:01:41;22.05;;;3.47;;
33413;SDS011;60055;41.884;12.534;2023-12-14T03:04:07;24.70;;;3.35;;
33413;SDS011;60055;41.884;12.534;2023-12-14T03:06:33;27.25;;;3.78;;
33413;SDS011;60055;41.884;12.534;2023-12-14T03:08:58;24.92;;;3.10;;
33413;SDS011;60055;41.884;12.534;2023-12-14T03:11:25;17.77;;;3.17;;
33413;SDS011;60055;41.884;12.534;2023-12-14T03:13:50;18.92;;;3.47;;
33413;SDS011;60055;41.884;12.534;2023-12-14T03:16:16;19.45;;;3.13;;
33413;SDS011;60055;41.884;12.534;2023-12-14T03:18:42;19.38;;;3.15;;
33413;SDS011;60055;41.884;12.534;2023-12-14T03:21:08;20.92;;;3.65;;
33413;SDS011;60055;41.884;12.534;2023-12-14T03:23:34;21.38;;;3.38;;
33413;SDS011;60055;41.884;12.534;2023-12-14T03:26:00;26.20;;;3.95;;
33413;SDS011;60055;41.884;12.534;2023-12-14T03:28:26;22.83;;;3.75;;
33413;SDS011;60055;41.884;12.534;2023-12-14T03:30:52;19.25;;;3.60;;
33413;SDS011;60055;41.884;12.534;2023-12-14T03:33:18;17.65;;;3.20;;
33413;SDS011;60055;41.884;12.534;2023-12-14T03:35:43;19.70;;;3.53;;
33413;SDS011;60055;41.884;12.534;2023-12-14T03:38:09;28.55;;;3.80;;
33413;SDS011;60055;41.884;12.534;2023-12-14T03:40:35;22.00;;;3.35;;
33413;SDS011;60055;41.884;12.534;2023-12-14T03:43:00;18.05;;;3.33;;
33413;SDS011;60055;41.884;12.534;2023-12-14T03:45:28;19.73;;;3.25;;
33413;SDS011;60055;41.884;12.534;2023-12-14T03:47:53;21.60;;;3.50;;
33413;SDS011;60055;41.884;12.534;2023-12-14T03:50:19;21.60;;;3.45;;
33413;SDS011;60055;41.884;12.534;2023-12-14T03:52:44;23.08;;;3.72;;
33413;SDS011;60055;41.884;12.534;2023-12-14T03:55:10;20.35;;;3.92;;
33413;SDS011;60055;41.884;12.534;2023-12-14T03:57:35;20.50;;;4.00;;
33413;SDS011;60055;41.884;12.534;2023-12-14T04:00:01;20.73;;;3.90;;
33413;SDS011;60055;41.884;12.534;2023-12-14T04:02:26;22.85;;;3.65;;
33413;SDS011;60055;41.884;12.534;2023-12-14T04:04:52;22.98;;;4.13;;
33413;SDS011;60055;41.884;12.534;2023-12-14T04:07:17;25.60;;;4.40;;
33413;SDS011;60055;41.884;12.534;2023-12-14T04:09:43;19.92;;;4.10;;
33413;SDS011;60055;41.884;12.534;2023-12-14T04:12:10;24.63;;;4.03;;
33413;SDS011;60055;41.884;12.534;2023-12-14T04:14:36;29.45;;;4.35;;
33413;SDS011;60055;41.884;12.534;2023-12-14T04:17:01;20.52;;;4.20;;
33413;SDS011;60055;41.884;12.534;2023-12-14T04:19:27;28.58;;;5.35;;
33413;SDS011;60055;41.884;12.534;2023-12-14T04:21:52;29.50;;;6.30;;
33413;SDS011;60055;41.884;12.534;2023-12-14T04:24:18;27.73;;;7.07;;
33413;SDS011;60055;41.884;12.534;2023-12-14T04:26:43;24.55;;;6.03;;
33413;SDS011;60055;41.884;12.534;2023-12-14T04:29:09;25.05;;;6.10;;
33413;SDS011;60055;41.884;12.534;2023-12-14T04:31:35;24.20;;;5.15;;
33413;SDS011;60055;41.884;12.534;2023-12-14T04:34:00;23.60;;;4.90;;
33413;SDS011;60055;41.884;12.534;2023-12-14T04:36:26;19.83;;;4.22;;
33413;SDS011;60055;41.884;12.534;2023-12-14T04:38:51;26.95;;;5.70;;
33413;SDS011;60055;41.884;12.534;2023-12-14T04:41:16;18.02;;;4.85;;
33413;SDS011;60055;41.884;12.534;2023-12-14T04:43:42;31.30;;;5.70;;
33413;SDS011;60055;41.884;12.534;2023-12-14T04:46:07;28.00;;;5.45;;
33413;SDS011;60055;41.884;12.534;2023-12-14T04:48:33;26.63;;;4.82;;
33413;SDS011;60055;41.884;12.534;2023-12-14T04:50:58;30.00;;;5.22;;
33413;SDS011;60055;41.884;12.534;2023-12-14T04:53:24;26.58;;;4.78;;
33413;SDS011;60055;41.884;12.534;2023-12-14T04:55:49;25.17;;;4.07;;
33413;SDS011;60055;41.884;12.534;2023-12-14T04:58:14;28.83;;;4.25;;
33413;SDS011;60055;41.884;12.534;2023-12-14T05:00:40;24.98;;;4.05;;
33413;SDS011;60055;41.884;12.534;2023-12-14T05:03:05;27.52;;;4.55;;
33413;SDS011;60055;41.884;12.534;2023-12-14T05:05:31;24.73;;;3.75;;
33413;SDS011;60055;41.884;12.534;2023-12-14T05:07:56;26.17;;;4.65;;
33413;SDS011;60055;41.884;12.534;2023-12-14T05:10:22;24.95;;;3.67;;
33413;SDS011;60055;41.884;12.534;2023-12-14T05:12:47;28.15;;;4.60;;
33413;SDS011;60055;41.884;12.534;2023-12-14T05:15:13;29.85;;;4.40;;
33413;SDS011;60055;41.884;12.534;2023-12-14T05:17:38;23.13;;;4.10;;
33413;SDS011;60055;41.884;12.534;2023-12-14T05:20:04;27.25;;;4.03;;
33413;SDS011;60055;41.884;12.534;2023-12-14T05:22:33;26.15;;;4.28;;
33413;SDS011;60055;41.884;12.534;2023-12-14T05:24:58;27.75;;;4.50;;
33413;SDS011;60055;41.884;12.534;2023-12-14T05:27:24;25.58;;;4.10;;
33413;SDS011;60055;41.884;12.534;2023-12-14T05:29:50;20.85;;;3.97;;
33413;SDS011;60055;41.884;12.534;2023-12-14T05:32:15;27.20;;;4.35;;
33413;SDS011;60055;41.884;12.534;2023-12-14T05:34:41;24.42;;;4.18;;
33413;SDS011;60055;41.884;12.534;2023-12-14T05:37:06;27.15;;;4.32;;
33413;SDS011;60055;41.884;12.534;2023-12-14T05:39:32;26.50;;;4.10;;
33413;SDS011;60055;41.884;12.534;2023-12-14T05:41:57;30.13;;;4.63;;
33413;SDS011;60055;41.884;12.534;2023-12-14T05:44:23;32.75;;;4.20;;
33413;SDS011;60055;41.884;12.534;2023-12-14T05:46:49;28.40;;;4.32;;
33413;SDS011;60055;41.884;12.534;2023-12-14T05:49:15;27.50;;;4.68;;
33413;SDS011;60055;41.884;12.534;2023-12-14T05:51:40;28.42;;;4.43;;
33413;SDS011;60055;41.884;12.534;2023-12-14T05:54:06;33.88;;;4.90;;
33413;SDS011;60055;41.884;12.534;2023-12-14T05:56:31;30.90;;;4.70;;
33413;SDS011;60055;41.884;12.534;2023-12-14T05:58:57;29.23;;;4.60;;
33413;SDS011;60055;41.884;12.534;2023-12-14T06:01:23;27.40;;;4.40;;
33413;SDS011;60055;41.884;12.534;2023-12-14T06:03:49;23.00;;;4.63;;
33413;SDS011;60055;41.884;12.534;2023-12-14T06:06:14;36.47;;;4.93;;
33413;SDS011;60055;41.884;12.534;2023-12-14T06:08:40;37.20;;;5.38;;
33413;SDS011;60055;41.884;12.534;2023-12-14T06:11:06;30.77;;;4.45;;
33413;SDS011;60055;41.884;12.534;2023-12-14T06:13:32;39.17;;;5.30;;
33413;SDS011;60055;41.884;12.534;2023-12-14T06:15:58;27.63;;;5.30;;
33413;SDS011;60055;41.884;12.534;2023-12-14T06:18:23;32.90;;;5.18;;
33413;SDS011;60055;41.884;12.534;2023-12-14T06:20:49;34.65;;;5.75;;
33413;SDS011;60055;41.884;12.534;2023-12-14T06:23:15;37.65;;;5.22;;
33413;SDS011;60055;41.884;12.534;2023-12-14T06:25:40;31.48;;;5.10;;
33413;SDS011;60055;41.884;12.534;2023-12-14T06:28:06;35.85;;;5.28;;
33413;SDS011;60055;41.884;12.534;2023-12-14T06:30:31;32.95;;;5.25;;
33413;SDS011;60055;41.884;12.534;2023-12-14T06:32:56;31.45;;;5.93;;
33413;SDS011;60055;41.884;12.534;2023-12-14T06:35:22;27.70;;;5.00;;
33413;SDS011;60055;41.884;12.534;2023-12-14T06:37:47;36.05;;;5.97;;
33413;SDS011;60055;41.884;12.534;2023-12-14T06:40:13;37.97;;;6.75;;
33413;SDS011;60055;41.884;12.534;2023-12-14T06:42:39;36.10;;;6.88;;
33413;SDS011;60055;41.884;12.534;2023-12-14T06:45:04;29.20;;;6.28;;
33413;SDS011;60055;41.884;12.534;2023-12-14T06:47:30;29.05;;;5.13;;
33413;SDS011;60055;41.884;12.534;2023-12-14T06:49:56;23.25;;;4.80;;
33413;SDS011;60055;41.884;12.534;2023-12-14T06:52:24;26.23;;;5.20;;
33413;SDS011;60055;41.884;12.534;2023-12-14T06:54:50;30.02;;;5.07;;
33413;SDS011;60055;41.884;12.534;2023-12-14T06:57:15;32.92;;;5.10;;
33413;SDS011;60055;41.884;12.534;2023-12-14T06:59:41;29.05;;;5.20;;
33413;SDS011;60055;41.884;12.534;2023-12-14T07:02:09;30.70;;;5.80;;
33413;SDS011;60055;41.884;12.534;2023-12-14T07:04:34;28.27;;;5.30;;
33413;SDS011;60055;41.884;12.534;2023-12-14T07:07:00;31.45;;;5.05;;
33413;SDS011;60055;41.884;12.534;2023-12-14T07:09:25;33.63;;;5.75;;
33413;SDS011;60055;41.884;12.534;2023-12-14T07:11:51;33.03;;;5.80;;
33413;SDS011;60055;41.884;12.534;2023-12-14T07:14:17;33.17;;;5.38;;
33413;SDS011;60055;41.884;12.534;2023-12-14T07:16:42;31.92;;;5.43;;
33413;SDS011;60055;41.884;12.534;2023-12-14T07:19:08;36.53;;;7.15;;
33413;SDS011;60055;41.884;12.534;2023-12-14T07:21:33;30.98;;;6.13;;
33413;SDS011;60055;41.884;12.534;2023-12-14T07:23:58;31.13;;;5.82;;
33413;SDS011;60055;41.884;12.534;2023-12-14T07:26:24;31.25;;;5.88;;
33413;SDS011;60055;41.884;12.534;2023-12-14T07:28:49;30.00;;;6.07;;
33413;SDS011;60055;41.884;12.534;2023-12-14T07:31:16;53.40;;;20.50;;
33413;SDS011;60055;41.884;12.534;2023-12-14T07:33:42;47.15;;;15.73;;
33413;SDS011;60055;41.884;12.534;2023-12-14T07:36:08;32.40;;;7.93;;
33413;SDS011;60055;41.884;12.534;2023-12-14T07:38:33;33.53;;;6.75;;
33413;SDS011;60055;41.884;12.534;2023-12-14T07:40:59;35.08;;;7.32;;
33413;SDS011;60055;41.884;12.534;2023-12-14T07:43:24;36.10;;;6.75;;
33413;SDS011;60055;41.884;12.534;2023-12-14T07:45:50;39.75;;;6.03;;
33413;SDS011;60055;41.884;12.534;2023-12-14T07:48:15;28.10;;;5.57;;
33413;SDS011;60055;41.884;12.534;2023-12-14T07:50:40;26.48;;;5.30;;
33413;SDS011;60055;41.884;12.534;2023-12-14T07:53:06;30.23;;;5.35;;
33413;SDS011;60055;41.884;12.534;2023-12-14T07:55:31;35.83;;;5.72;;
33413;SDS011;60055;41.884;12.534;2023-12-14T07:57:57;32.55;;;5.47;;
33413;SDS011;60055;41.884;12.534;2023-12-14T08:00:22;33.50;;;5.75;;
33413;SDS011;60055;41.884;12.534;2023-12-14T08:02:48;33.30;;;5.47;;
33413;SDS011;60055;41.884;12.534;2023-12-14T08:05:13;30.77;;;5.97;;
33413;SDS011;60055;41.884;12.534;2023-12-14T08:07:39;29.33;;;5.70;;
33413;SDS011;60055;41.884;12.534;2023-12-14T08:10:04;36.70;;;6.20;;
33413;SDS011;60055;41.884;12.534;2023-12-14T08:12:30;29.20;;;6.25;;
33413;SDS011;60055;41.884;12.534;2023-12-14T08:14:55;39.28;;;5.53;;
33413;SDS011;60055;41.884;12.534;2023-12-14T08:17:21;33.92;;;7.05;;
33413;SDS011;60055;41.884;12.534;2023-12-14T08:19:46;37.95;;;7.25;;
33413;SDS011;60055;41.884;12.534;2023-12-14T08:22:12;26.67;;;5.90;;
33413;SDS011;60055;41.884;12.534;2023-12-14T08:24:40;28.85;;;6.35;;
33413;SDS011;60055;41.884;12.534;2023-12-14T08:27:06;36.85;;;6.18;;
33413;SDS011;60055;41.884;12.534;2023-12-14T08:29:31;29.80;;;6.45;;
33413;SDS011;60055;41.884;12.534;2023-12-14T08:31:57;37.88;;;7.00;;
33413;SDS011;60055;41.884;12.534;2023-12-14T08:34:24;32.65;;;6.20;;
33413;SDS011;60055;41.884;12.534;2023-12-14T08:36:50;31.05;;;4.88;;
33413;SDS011;60055;41.884;12.534;2023-12-14T08:39:16;29.63;;;4.95;;
33413;SDS011;60055;41.884;12.534;2023-12-14T08:41:42;33.72;;;5.50;;
33413;SDS011;60055;41.884;12.534;2023-12-14T08:44:09;32.78;;;5.80;;
33413;SDS011;60055;41.884;12.534;2023-12-14T08:46:42;29.33;;;5.10;;
33413;SDS011;60055;41.884;12.534;2023-12-14T08:49:08;33.25;;;5.20;;
33413;SDS011;60055;41.884;12.534;2023-12-14T08:51:33;32.00;;;5.18;;
33413;SDS011;60055;41.884;12.534;2023-12-14T08:53:59;31.77;;;5.72;;
33413;SDS011;60055;41.884;12.534;2023-12-14T08:56:24;31.48;;;5.18;;
33413;SDS011;60055;41.884;12.534;2023-12-14T08:58:50;34.88;;;5.72;;
33413;SDS011;60055;41.884;12.534;2023-12-14T09:01:21;29.45;;;5.85;;
33413;SDS011;60055;41.884;12.534;2023-12-14T09:03:48;30.33;;;5.70;;
33413;SDS011;60055;41.884;12.534;2023-12-14T09:06:15;35.13;;;5.78;;
33413;SDS011;60055;41.884;12.534;2023-12-14T09:08:41;33.90;;;5.78;;
33413;SDS011;60055;41.884;12.534;2023-12-14T09:11:07;27.48;;;5.40;;
33413;SDS011;60055;41.884;12.534;2023-12-14T09:13:32;35.65;;;5.43;;
33413;SDS011;60055;41.884;12.534;2023-12-14T09:15:58;32.97;;;6.03;;
33413;SDS011;60055;41.884;12.534;2023-12-14T09:18:23;30.90;;;5.25;;
33413;SDS011;60055;41.884;12.534;2023-12-14T09:20:49;34.58;;;6.13;;
33413;SDS011;60055;41.884;12.534;2023-12-14T09:23:15;35.08;;;7.03;;
33413;SDS011;60055;41.884;12.534;2023-12-14T09:25:41;30.95;;;6.00;;
33413;SDS011;60055;41.884;12.534;2023-12-14T09:28:07;29.30;;;5.90;;
33413;SDS011;60055;41.884;12.534;2023-12-14T09:30:32;29.70;;;6.18;;
33413;SDS011;60055;41.884;12.534;2023-12-14T09:32:58;30.52;;;5.65;;
33413;SDS011;60055;41.884;12.534;2023-12-14T09:35:24;33.13;;;6.28;;
33413;SDS011;60055;41.884;12.534;2023-12-14T09:37:49;34.85;;;6.13;;
33413;SDS011;60055;41.884;12.534;2023-12-14T09:40:15;32.47;;;6.68;;
33413;SDS011;60055;41.884;12.534;2023-12-14T09:42:41;26.67;;;5.88;;
33413;SDS011;60055;41.884;12.534;2023-12-14T09:45:07;30.75;;;5.60;;
33413;SDS011;60055;41.884;12.534;2023-12-14T09:47:34;30.10;;;5.70;;
33413;SDS011;60055;41.884;12.534;2023-12-14T09:50:00;37.65;;;5.95;;
33413;SDS011;60055;41.884;12.534;2023-12-14T09:52:26;33.20;;;6.05;;
33413;SDS011;60055;41.884;12.534;2023-12-14T09:54:51;29.45;;;5.68;;
33413;SDS011;60055;41.884;12.534;2023-12-14T09:57:20;34.08;;;5.85;;
33413;SDS011;60055;41.884;12.534;2023-12-14T09:59:52;31.65;;;5.97;;
33413;SDS011;60055;41.884;12.534;2023-12-14T10:02:18;32.00;;;6.03;;
33413;SDS011;60055;41.884;12.534;2023-12-14T10:04:45;36.17;;;6.32;;
33413;SDS011;60055;41.884;12.534;2023-12-14T10:07:10;28.27;;;6.53;;
33413;SDS011;60055;41.884;12.534;2023-12-14T10:09:36;33.30;;;6.18;;
33413;SDS011;60055;41.884;12.534;2023-12-14T10:12:06;33.30;;;6.57;;
33413;SDS011;60055;41.884;12.534;2023-12-14T10:14:33;33.47;;;6.15;;
33413;SDS011;60055;41.884;12.534;2023-12-14T10:17:13;36.33;;;6.32;;
33413;SDS011;60055;41.884;12.534;2023-12-14T10:19:46;35.92;;;7.35;;
33413;SDS011;60055;41.884;12.534;2023-12-14T10:22:15;36.35;;;6.65;;
33413;SDS011;60055;41.884;12.534;2023-12-14T10:24:46;28.00;;;5.72;;
33413;SDS011;60055;41.884;12.534;2023-12-14T10:27:13;38.20;;;6.32;;
33413;SDS011;60055;41.884;12.534;2023-12-14T10:29:39;36.15;;;6.45;;
33413;SDS011;60055;41.884;12.534;2023-12-14T10:32:06;42.72;;;6.65;;
33413;SDS011;60055;41.884;12.534;2023-12-14T10:34:34;33.13;;;5.47;;
33413;SDS011;60055;41.884;12.534;2023-12-14T10:37:00;32.25;;;5.90;;
33413;SDS011;60055;41.884;12.534;2023-12-14T10:39:26;36.40;;;6.07;;
33413;SDS011;60055;41.884;12.534;2023-12-14T10:41:54;31.65;;;5.20;;
33413;SDS011;60055;41.884;12.534;2023-12-14T10:44:23;32.55;;;6.00;;
33413;SDS011;60055;41.884;12.534;2023-12-14T10:46:55;21.65;;;4.22;;
33413;SDS011;60055;41.884;12.534;2023-12-14T10:49:23;23.45;;;3.85;;
33413;SDS011;60055;41.884;12.534;2023-12-14T10:51:51;19.52;;;3.22;;
33413;SDS011;60055;41.884;12.534;2023-12-14T10:54:18;14.48;;;3.40;;
33413;SDS011;60055;41.884;12.534;2023-12-14T10:56:44;19.70;;;3.45;;
33413;SDS011;60055;41.884;12.534;2023-12-14T10:59:09;15.60;;;2.80;;
33413;SDS011;60055;41.884;12.534;2023-12-14T11:01:35;15.57;;;2.78;;
33413;SDS011;60055;41.884;12.534;2023-12-14T11:04:03;16.75;;;2.63;;
33413;SDS011;60055;41.884;12.534;2023-12-14T11:06:32;18.50;;;3.00;;
33413;SDS011;60055;41.884;12.534;2023-12-14T11:09:09;16.92;;;2.70;;
33413;SDS011;60055;41.884;12.534;2023-12-14T11:11:43;18.77;;;3.05;;
33413;SDS011;60055;41.884;12.534;2023-12-14T11:14:18;15.20;;;3.10;;
33413;SDS011;60055;41.884;12.534;2023-12-14T11:16:46;19.58;;;4.03;;
33413;SDS011;60055;41.884;12.534;2023-12-14T11:22:33;23.73;;;3.95;;
33413;SDS011;60055;41.884;12.534;2023-12-14T11:24:35;21.25;;;3.88;;
33413;SDS011;60055;41.884;12.534;2023-12-14T11:27:04;30.23;;;4.30;;
33413;SDS011;60055;41.884;12.534;2023-12-14T11:29:31;25.30;;;4.20;;
33413;SDS011;60055;41.884;12.534;2023-12-14T11:31:57;22.35;;;4.03;;
33413;SDS011;60055;41.884;12.534;2023-12-14T11:34:25;18.52;;;4.05;;
33413;SDS011;60055;41.884;12.534;2023-12-14T11:36:51;27.48;;;4.15;;
33413;SDS011;60055;41.884;12.534;2023-12-14T11:39:16;16.33;;;3.60;;
33413;SDS011;60055;41.884;12.534;2023-12-14T11:41:42;18.58;;;3.85;;
33413;SDS011;60055;41.884;12.534;2023-12-14T11:44:07;21.20;;;3.80;;
33413;SDS011;60055;41.884;12.534;2023-12-14T11:46:33;18.10;;;3.50;;
33413;SDS011;60055;41.884;12.534;2023-12-14T11:48:58;17.90;;;3.67;;
33413;SDS011;60055;41.884;12.534;2023-12-14T11:51:24;15.60;;;3.30;;
33413;SDS011;60055;41.884;12.534;2023-12-14T11:53:55;15.73;;;3.40;;
33413;SDS011;60055;41.884;12.534;2023-12-14T11:56:20;16.33;;;3.55;;
33413;SDS011;60055;41.884;12.534;2023-12-14T11:58:48;14.07;;;3.17;;
33413;SDS011;60055;41.884;12.534;2023-12-14T12:03:41;19.13;;;3.72;;
33413;SDS011;60055;41.884;12.534;2023-12-14T12:06:09;12.32;;;2.55;;
33413;SDS011;60055;41.884;12.534;2023-12-14T12:08:52;19.05;;;3.35;;
33413;SDS011;60055;41.884;12.534;2023-12-14T12:11:19;18.38;;;3.13;;
33413;SDS011;60055;41.884;12.534;2023-12-14T12:13:52;17.65;;;3.17;;
33413;SDS011;60055;41.884;12.534;2023-12-14T12:16:17;14.70;;;3.00;;
33413;SDS011;60055;41.884;12.534;2023-12-14T12:18:43;14.20;;;3.17;;
33413;SDS011;60055;41.884;12.534;2023-12-14T12:21:08;14.27;;;3.05;;
33413;SDS011;60055;41.884;12.534;2023-12-14T12:23:34;13.48;;;2.83;;
33413;SDS011;60055;41.884;12.534;2023-12-14T12:26:00;16.70;;;3.55;;
33413;SDS011;60055;41.884;12.534;2023-12-14T12:28:25;15.52;;;3.28;;
33413;SDS011;60055;41.884;12.534;2023-12-14T12:30:51;15.55;;;3.13;;
33413;SDS011;60055;41.884;12.534;2023-12-14T12:33:16;15.02;;;3.05;;
33413;SDS011;60055;41.884;12.534;2023-12-14T12:35:41;18.00;;;3.30;;
33413;SDS011;60055;41.884;12.534;2023-12-14T12:38:07;15.00;;;2.80;;
33413;SDS011;60055;41.884;12.534;2023-12-14T12:40:32;13.95;;;2.75;;
33413;SDS011;60055;41.884;12.534;2023-12-14T12:42:58;13.07;;;2.60;;
33413;SDS011;60055;41.884;12.534;2023-12-14T12:45:24;12.85;;;3.05;;
33413;SDS011;60055;41.884;12.534;2023-12-14T12:47:52;14.75;;;2.58;;
33413;SDS011;60055;41.884;12.534;2023-12-14T12:50:18;15.25;;;2.70;;
33413;SDS011;60055;41.884;12.534;2023-12-14T12:52:44;13.18;;;2.67;;
33413;SDS011;60055;41.884;12.534;2023-12-14T12:55:13;15.48;;;3.65;;
33413;SDS011;60055;41.884;12.534;2023-12-14T12:57:39;13.07;;;3.00;;
33413;SDS011;60055;41.884;12.534;2023-12-14T13:00:06;15.60;;;3.00;;
33413;SDS011;60055;41.884;12.534;2023-12-14T13:02:36;10.73;;;2.78;;
33413;SDS011;60055;41.884;12.534;2023-12-14T13:05:04;13.90;;;2.45;;
33413;SDS011;60055;41.884;12.534;2023-12-14T13:07:30;11.50;;;2.40;;
33413;SDS011;60055;41.884;12.534;2023-12-14T13:09:56;11.75;;;2.25;;
33413;SDS011;60055;41.884;12.534;2023-12-14T13:12:21;19.98;;;2.80;;
33413;SDS011;60055;41.884;12.534;2023-12-14T13:14:47;13.05;;;2.50;;
33413;SDS011;60055;41.884;12.534;2023-12-14T13:17:12;9.27;;;1.77;;
33413;SDS011;60055;41.884;12.534;2023-12-14T13:19:37;8.40;;;1.90;;
33413;SDS011;60055;41.884;12.534;2023-12-14T13:22:03;10.77;;;1.90;;
33413;SDS011;60055;41.884;12.534;2023-12-14T13:24:29;8.48;;;1.83;;
33413;SDS011;60055;41.884;12.534;2023-12-14T13:26:55;7.80;;;1.60;;
33413;SDS011;60055;41.884;12.534;2023-12-14T13:29:20;5.28;;;1.45;;
33413;SDS011;60055;41.884;12.534;2023-12-14T13:31:47;7.60;;;1.65;;
33413;SDS011;60055;41.884;12.534;2023-12-14T13:34:13;7.80;;;1.92;;
33413;SDS011;60055;41.884;12.534;2023-12-14T13:36:38;4.35;;;1.40;;
33413;SDS011;60055;41.884;12.534;2023-12-14T13:39:03;5.18;;;1.40;;
33413;SDS011;60055;41.884;12.534;2023-12-14T13:41:29;7.20;;;1.50;;
33413;SDS011;60055;41.884;12.534;2023-12-14T13:43:58;4.75;;;1.40;;
33413;SDS011;60055;41.884;12.534;2023-12-14T13:46:24;5.40;;;1.33;;
33413;SDS011;60055;41.884;12.534;2023-12-14T13:48:50;5.50;;;1.35;;
33413;SDS011;60055;41.884;12.534;2023-12-14T13:51:15;7.40;;;1.45;;
33413;SDS011;60055;41.884;12.534;2023-12-14T13:53:40;7.50;;;1.40;;
33413;SDS011;60055;41.884;12.534;2023-12-14T13:56:06;6.25;;;1.25;;
33413;SDS011;60055;41.884;12.534;2023-12-14T13:58:32;7.18;;;1.30;;
33413;SDS011;60055;41.884;12.534;2023-12-14T14:00:59;2.95;;;1.00;;
33413;SDS011;60055;41.884;12.534;2023-12-14T14:03:25;4.80;;;1.20;;
33413;SDS011;60055;41.884;12.534;2023-12-14T14:05:52;6.57;;;1.20;;
33413;SDS011;60055;41.884;12.534;2023-12-14T14:08:18;4.07;;;1.30;;
33413;SDS011;60055;41.884;12.534;2023-12-14T14:10:43;4.80;;;1.50;;
33413;SDS011;60055;41.884;12.534;2023-12-14T14:13:08;4.72;;;1.30;;
33413;SDS011;60055;41.884;12.534;2023-12-14T14:15:34;7.13;;;1.48;;
33413;SDS011;60055;41.884;12.534;2023-12-14T14:17:59;5.65;;;1.55;;
33413;SDS011;60055;41.884;12.534;2023-12-14T14:20:25;7.88;;;1.80;;
33413;SDS011;60055;41.884;12.534;2023-12-14T14:22:51;7.90;;;1.45;;
33413;SDS011;60055;41.884;12.534;2023-12-14T14:25:16;5.15;;;1.83;;